PILOTS ONLINE: 376    ATC ONLINE: 59

Location

IATA YIK
City Ivujivik
Country  Canada
Latitude 62° 25' 2" N
Longitude 77° 55' 31" W
Elevation 126 ft
Type Medium Airport

Weather

METAR
2014/07/14 13:00
CYIK 141300Z 04018G23KT 15SM FEW150 FEW200 FEW250 07/04 A3006 RMK AC1CI1CS1 SLP181
TAF
2014/07/14 14:00
TAF CYIK 141338Z 1414/1421 04015G25KT P6SM SKC 
      RMK NXT FCST WILL BE ISSUED AT 151345Z

Runways

08/26 3521 ft / 100 ft

Outbound flights

Inbound flights


Spotted incorrect airport information? Please login with your VATSIM ID.